Latest Weather Observations for Ballina

IDN60801

Issued at 10:35 am EDT Monday 24 November 2014 (issued every 30 minutes, with the page automatically refreshed every 10 minutes)

About weather observations | Map of weather stations | Latest weather observations for NSW | Other Formats
Station Details ID: 058198 Name: BALLINA AIRPORT AWS Lat: -28.84 Lon: 153.56 Height: 1.3 m
Data from the previous 72 hours. | See also: Recent months at Ballina
Date/Time
EDT
Temp
°C
App
Temp
°C
Dew
Point
Rel
Hum
%
Delta-T
°C
Wind Press
QNH
hPa
Press
MSL
hPa
Rain
since 9 am
mm
Dir
 
Spd
km/h
Gust
km/h
Spd
kts
Gust
kts
24/10:30am 28.9 29.0 21.1 62 5.2 N 22 32 12 17 1015.7 1015.7 0.0
24/10:00am 27.8 26.2 20.1 63 5.0 N 28 39 15 21 1016.0 1016.0 0.0
24/09:30am 27.2 26.0 20.0 64 4.7 N 26 37 14 20 1016.1 1016.1 0.0
24/09:00am 26.3 25.6 20.2 69 4.0 N 24 37 13 20 1016.5 1016.5 0.0
24/08:30am 25.7 24.1 20.0 71 3.7 N 28 41 15 22 1016.6 1016.6 0.0
24/08:00am 25.0 23.7 19.8 73 3.4 N 26 37 14 20 1016.4 1016.4 0.0
24/07:30am 24.4 23.6 20.1 77 2.8 N 24 33 13 18 1016.1 1016.1 0.0
24/07:00am 23.5 23.0 20.0 81 2.3 N 22 33 12 18 1016.1 1016.1 0.0
24/06:30am 22.7 23.1 19.9 84 1.8 NNE 17 26 9 14 1016.1 1016.1 0.0
24/06:00am 22.4 21.9 19.9 86 1.6 NNE 22 32 12 17 1015.7 1015.7 0.0
24/05:30am 22.4 22.8 19.9 86 1.6 N 17 26 9 14 1015.7 1015.7 0.0
24/05:00am 22.5 22.6 19.9 85 1.7 N 19 24 10 13 1015.2 1015.2 0.0
24/04:30am 22.7 22.6 19.9 84 1.8 N 20 32 11 17 1014.9 1014.9 0.0
24/04:00am 22.8 22.0 20.0 84 1.8 N 24 32 13 17 1014.8 1014.8 0.0
24/03:30am 22.9 22.5 20.1 84 1.8 N 22 30 12 16 1015.0 1015.0 0.0
24/03:00am 23.0 21.8 20.1 84 1.9 N 26 39 14 21 1014.7 1014.7 0.0
24/02:30am 22.9 21.9 20.4 86 1.6 N 26 39 14 21 1014.6 1014.6 0.0
24/02:18am 23.0 21.3 20.5 86 1.6 N 30 48 16 26 1014.5 1014.5 0.0
24/02:00am 23.0 21.6 20.5 86 1.6 N 28 39 15 21 1014.8 1014.8 0.0
24/01:30am 23.0 21.7 20.7 87 1.5 NNE 28 37 15 20 1015.2 1015.2 0.0
24/01:00am 23.2 22.7 20.7 86 1.6 N 24 41 13 22 1015.6 1015.6 0.0
24/12:30am 23.2 23.5 20.7 86 1.6 N 20 30 11 16 1015.8 1015.8 0.0
24/12:00am 23.3 23.6 20.8 86 1.6 NNE 20 32 11 17 1015.9 1015.9 0.0
 
Date/Time
EDT
Temp
°C
App
Temp
°C
Dew
Point
Rel
Hum
%
Delta-T
°C
Wind Press
QNH
hPa
Press
MSL
hPa
Rain
since 9 am
mm
Dir
 
Spd
km/h
Gust
km/h
Spd
kts
Gust
kts
23/11:30pm 23.4 23.0 20.9 86 1.6 NNE 24 35 13 19 1015.8 1015.8 0.0
23/11:00pm 23.3 22.0 20.6 85 1.8 NNE 28 39 15 21 1015.6 1015.6 0.0
23/10:30pm 23.3 22.2 20.2 83 2.0 NNE 26 37 14 20 1015.2 1015.2 0.0
23/10:00pm 23.3 23.5 20.1 82 2.1 N 19 28 10 15 1015.6 1015.6 0.0
23/09:30pm 23.5 23.6 20.0 81 2.3 N 19 30 10 16 1015.4 1015.4 0.0
23/09:00pm 23.7 22.5 20.0 80 2.4 N 26 37 14 20 1015.1 1015.1 0.0
23/08:30pm 23.7 23.3 19.4 77 2.7 N 20 28 11 15 1014.7 1014.7 0.0
23/08:00pm 24.0 23.1 19.1 74 3.1 N 22 33 12 18 1014.4 1014.4 0.0
23/07:30pm 24.1 23.3 19.2 74 3.1 N 22 32 12 17 1013.9 1013.9 0.0
23/07:00pm 24.3 22.8 18.5 70 3.7 N 24 35 13 19 1013.0 1013.0 0.0
23/06:30pm 24.5 23.1 18.7 70 3.7 N 24 37 13 20 1012.8 1012.8 0.0
23/06:00pm 24.9 23.4 18.6 68 4.0 N 24 39 13 21 1012.3 1012.3 0.0
23/05:30pm 25.2 23.1 18.9 68 4.0 N 28 39 15 21 1012.4 1012.4 0.0
23/05:00pm 25.4 23.8 19.1 68 4.0 N 26 39 14 21 1012.6 1012.6 0.0
23/04:30pm 25.5 23.5 18.4 65 4.5 N 26 41 14 22 1012.7 1012.7 0.0
23/04:16pm 25.7 23.4 18.4 64 4.6 N 28 48 15 26 1012.6 1012.6 0.0
23/04:00pm 25.8 23.1 18.5 64 4.6 N 30 43 16 23 1012.5 1012.5 0.0
23/03:30pm 26.1 23.3 19.0 65 4.5 N 32 48 17 26 1012.9 1012.9 0.0
23/03:00pm 27.1 25.1 19.9 64 4.7 N 30 50 16 27 1013.0 1013.0 0.0
23/02:43pm 28.1 26.2 20.9 65 4.8 N 32 50 17 27 1013.1 1013.1 0.0
23/02:30pm 28.7 26.0 21.2 64 5.0 N 37 52 20 28 1013.3 1013.3 0.0
23/02:06pm 28.4 25.8 20.7 63 5.1 N 35 54 19 29 1013.5 1013.5 0.0
23/02:00pm 28.8 26.4 21.0 62 5.2 N 35 48 19 26 1013.6 1013.6 0.0
23/01:30pm 29.0 27.2 21.5 64 5.0 N 33 44 18 24 1014.0 1014.0 0.0
23/01:04pm 28.5 26.0 20.8 63 5.1 N 35 54 19 29 1014.3 1014.3 0.0
23/01:00pm 29.0 26.9 21.7 64 4.9 N 35 50 19 27 1014.5 1014.5 0.0
23/12:30pm 28.6 26.0 20.6 62 5.3 N 35 50 19 27 1015.0 1015.0 0.0
23/12:00pm 28.8 26.9 21.0 62 5.2 N 32 44 17 24 1015.2 1015.2 0.0
23/11:55am 29.0 27.6 22.0 66 4.7 N 32 50 17 27 1015.4 1015.4 0.0
23/11:30am 28.5 26.6 21.0 64 5.0 N 32 46 17 25 1015.7 1015.7 0.0
23/11:00am 28.6 27.4 20.9 63 5.1 N 28 43 15 23 1016.0 1016.0 0.0
23/10:30am 28.6 28.2 20.9 63 5.1 NNE 24 35 13 19 1016.4 1016.4 0.0
23/10:00am 27.8 26.2 20.1 63 5.0 NNE 28 39 15 21 1016.2 1016.2 0.0
23/09:30am 27.7 26.7 20.5 65 4.7 NNE 26 41 14 22 1016.3 1016.3 0.0
23/09:00am 27.1 26.5 20.4 66 4.4 N 24 35 13 19 1016.5 1016.5 0.0
23/08:30am 26.4 25.9 20.7 71 3.7 N 24 33 13 18 1016.5 1016.5 0.0
23/08:00am 25.7 26.1 20.7 74 3.3 N 19 26 10 14 1016.6 1016.6 0.0
23/07:30am 24.7 26.1 21.0 80 2.4 N 15 19 8 10 1016.5 1016.5 0.0
23/07:00am 24.0 25.6 20.7 82 2.2 N 13 19 7 10 1016.2 1016.2 0.0
23/06:30am 23.6 24.8 20.7 84 1.9 N 15 20 8 11 1015.8 1015.8 0.0
23/06:00am 23.4 23.8 20.7 85 1.8 N 19 28 10 15 1015.1 1015.1 0.0
23/05:30am 23.3 23.7 20.6 85 1.8 N 19 28 10 15 1014.8 1014.8 0.0
23/05:00am 23.3 23.6 20.8 86 1.6 N 20 30 11 16 1014.1 1014.1 0.0
23/04:30am 23.1 22.6 20.8 87 1.5 NNE 24 33 13 18 1013.9 1013.9 0.0
23/04:00am 23.1 23.1 21.0 88 1.4 NNE 22 30 12 16 1013.8 1013.8 0.0
23/03:30am 23.2 23.7 20.9 87 1.5 NNE 19 28 10 15 1013.8 1013.8 0.0
23/03:00am 23.3 23.6 20.8 86 1.6 N 20 28 11 15 1013.8 1013.8 0.0
23/02:30am 23.4 23.3 20.7 85 1.8 NNE 22 32 12 17 1013.9 1013.9 0.0
23/02:00am 23.4 23.4 20.9 86 1.6 NNE 22 39 12 21 1014.2 1014.2 0.0
23/01:30am 23.6 24.0 20.9 85 1.8 N 20 35 11 19 1014.3 1014.3 0.0
23/01:00am 23.7 24.0 20.8 84 1.9 N 20 33 11 18 1014.6 1014.6 0.0
23/12:30am 23.7 24.6 20.8 84 1.9 N 17 24 9 13 1014.8 1014.8 0.0
23/12:00am 24.0 24.4 20.9 83 2.0 N 20 33 11 18 1014.9 1014.9 0.0
 
Date/Time
EDT
Temp
°C
App
Temp
°C
Dew
Point
Rel
Hum
%
Delta-T
°C
Wind Press
QNH
hPa
Press
MSL
hPa
Rain
since 9 am
mm
Dir
 
Spd
km/h
Gust
km/h
Spd
kts
Gust
kts
22/11:30pm 23.9 23.7 20.6 82 2.1 N 22 37 12 20 1014.7 1014.7 0.0
22/11:00pm 24.0 22.7 20.7 82 2.2 N 28 39 15 21 1014.4 1014.4 0.0
22/10:30pm 24.0 23.5 20.7 82 2.2 N 24 33 13 18 1014.4 1014.4 0.0
22/10:00pm 24.0 23.9 20.7 82 2.2 N 22 33 12 18 1014.1 1014.1 0.0
22/09:30pm 24.1 22.9 20.8 82 2.2 N 28 43 15 23 1013.6 1013.6 0.0
22/09:13pm 24.1 23.0 21.0 83 2.0 N 28 46 15 25 1013.3 1013.3 0.0
22/09:00pm 24.1 23.0 21.0 83 2.0 N 28 43 15 23 1013.2 1013.2 0.0
22/08:39pm 24.1 23.0 21.0 83 2.0 N 28 46 15 25 1012.9 1012.9 0.0
22/08:30pm 24.1 23.4 21.0 83 2.0 N 26 43 14 23 1012.7 1012.7 0.0
22/08:00pm 24.3 24.1 21.2 83 2.0 NNE 24 39 13 21 1012.5 1012.5 0.0
22/07:30pm 24.6 23.6 21.3 82 2.2 NNE 28 41 15 22 1012.1 1012.1 0.0
22/07:00pm 25.4 25.7 21.5 79 2.6 N 22 32 12 17 1011.7 1011.7 0.0
22/06:30pm 25.9 25.5 21.6 77 2.9 NNE 26 39 14 21 1011.1 1011.1 0.0
22/06:00pm 26.0 25.1 21.4 76 3.1 N 28 50 15 27 1010.8 1010.8 0.0
22/05:59pm 26.1 25.2 21.5 76 3.1 N 28 50 15 27 1010.8 1010.8 0.0
22/05:30pm 25.9 24.2 21.3 76 3.0 N 32 44 17 24 1010.6 1010.6 0.0
22/05:00pm 26.1 25.0 21.7 77 2.9 N 30 39 16 21 1010.4 1010.4 0.0
22/04:30pm 26.2 25.3 21.4 75 3.2 N 28 37 15 20 1010.7 1010.7 0.0
22/04:00pm 26.8 25.9 21.5 72 3.5 N 28 37 15 20 1011.1 1011.1 0.0
22/03:30pm 27.8 27.6 22.1 71 3.8 N 26 37 14 20 1011.2 1011.2 0.0
22/03:00pm 27.9 26.2 21.7 69 4.2 N 33 43 18 23 1011.5 1011.5 0.0
22/02:30pm 29.1 27.6 21.8 64 4.9 NNE 32 46 17 25 1011.6 1011.6 0.0
22/02:00pm 29.4 28.8 22.6 67 4.6 N 30 46 16 25 1011.6 1011.6 0.0
22/01:30pm 29.6 28.4 22.6 66 4.8 N 33 43 18 23 1011.8 1011.8 0.0
22/01:00pm 29.7 29.1 22.7 66 4.8 N 30 41 16 22 1012.0 1012.0 0.0
22/12:30pm 30.0 29.7 21.9 62 5.5 N 26 39 14 21 1012.5 1012.5 0.0
22/12:00pm 30.4 30.9 22.0 60 5.7 N 22 30 12 16 1012.7 1012.7 0.0
22/11:30am 30.4 31.5 23.6 67 4.7 NNE 24 28 13 15 1012.9 1012.9 0.0
22/11:00am 29.6 31.2 23.3 69 4.3 N 20 30 11 16 1013.2 1013.2 0.0
22/10:30am 28.5 28.9 22.5 70 4.1 N 24 32 13 17 1013.4 1013.4 0.0
22/10:00am 27.8 27.5 21.8 70 4.0 NNE 26 35 14 19 1013.5 1013.5 0.0
22/09:30am 28.4 30.1 23.1 73 3.6 N 19 26 10 14 1013.7 1013.7 0.0
22/09:00am 27.4 28.6 22.1 73 3.6 NNE 19 26 10 14 1013.7 1013.7 0.0
22/08:30am 25.5 27.7 21.8 80 2.5 NNE 13 19 7 10 1013.7 1013.7 0.0
22/08:00am 25.2 27.3 21.7 81 2.3 N 13 19 7 10 1013.6 1013.6 0.0
22/07:30am 24.8 26.0 21.5 82 2.2 NNE 17 26 9 14 1012.9 1012.9 0.0
22/07:00am 24.0 24.6 21.3 85 1.8 N 20 32 11 17 1012.6 1012.6 0.0
22/06:30am 23.5 23.6 21.2 87 1.5 N 22 28 12 15 1012.3 1012.3 0.0
22/06:00am 23.2 23.7 21.1 88 1.4 N 20 28 11 15 1011.9 1011.9 0.0
22/05:30am 23.2 23.7 21.1 88 1.4 N 20 26 11 14 1011.7 1011.7 0.0
22/05:00am 23.2 23.8 21.3 89 1.2 N 20 30 11 16 1011.2 1011.2 0.0
22/04:30am 23.2 24.0 21.3 89 1.2 N 19 28 10 15 1010.9 1010.9 0.0
22/04:00am 23.1 23.3 21.4 90 1.1 N 22 30 12 16 1010.5 1010.5 0.0
22/03:30am 23.1 23.3 21.4 90 1.1 NNE 22 32 12 17 1010.2 1010.2 0.0
22/03:00am 23.4 24.2 21.7 90 1.1 N 20 28 11 15 1010.4 1010.4 0.0
22/02:30am 23.5 23.8 21.6 89 1.3 N 22 30 12 16 1010.1 1010.1 0.0
22/02:00am 23.6 23.1 21.5 88 1.4 N 26 37 14 20 1009.8 1009.8 0.0
22/01:30am 23.6 23.0 21.3 87 1.5 NNE 26 41 14 22 1009.8 1009.8 0.0
22/01:00am 23.8 22.8 21.3 86 1.6 NNE 28 41 15 22 1010.2 1010.2 0.0
22/12:30am 23.8 23.7 21.5 87 1.5 N 24 37 13 20 1010.8 1010.8 0.0
22/12:00am 23.8 23.2 21.3 86 1.6 N 26 37 14 20 1011.3 1011.3 0.0
 
Date/Time
EDT
Temp
°C
App
Temp
°C
Dew
Point
Rel
Hum
%
Delta-T
°C
Wind Press
QNH
hPa
Press
MSL
hPa
Rain
since 9 am
mm
Dir
 
Spd
km/h
Gust
km/h
Spd
kts
Gust
kts
21/11:30pm 24.0 23.9 21.5 86 1.7 N 24 35 13 19 1011.4 1011.4 0.0
21/11:00pm 24.1 23.6 21.4 85 1.8 N 26 39 14 21 1011.1 1011.1 0.0
21/10:30pm 24.2 23.3 21.5 85 1.8 N 28 37 15 20 1011.0 1011.0 0.0
21/10:02pm 24.1 22.5 21.6 86 1.7 N 32 50 17 27 1010.6 1010.6 0.0
21/10:00pm 24.0 22.4 21.5 86 1.7 N 32 43 17 23 1010.6 1010.6 0.0
21/09:40pm 24.0 22.8 21.5 86 1.7 N 30 48 16 26 1010.6 1010.6 0.0
21/09:30pm 23.9 23.0 21.4 86 1.6 N 28 43 15 23 1010.6 1010.6 0.0
21/09:00pm 24.0 22.8 21.5 86 1.7 N 30 41 16 22 1010.6 1010.6 0.0
21/08:50pm 24.1 22.9 21.6 86 1.7 N 30 50 16 27 1010.5 1010.5 0.0
21/08:30pm 24.0 23.2 21.7 87 1.5 N 28 44 15 24 1010.4 1010.4 0.0
21/08:05pm 23.9 23.1 21.6 87 1.5 N 28 50 15 27 1010.3 1010.3 0.0
21/08:00pm 24.0 22.8 21.5 86 1.7 N 30 44 16 24 1010.3 1010.3 0.0
21/07:50pm 24.1 22.9 21.6 86 1.7 N 30 48 16 26 1010.2 1010.2 0.0
21/07:30pm 24.2 23.4 21.7 86 1.7 NNE 28 43 15 23 1010.2 1010.2 0.0
21/07:04pm 24.5 23.3 21.6 84 1.9 N 30 48 16 26 1010.0 1010.0 0.0
21/07:00pm 24.6 23.1 21.7 84 1.9 N 32 48 17 26 1010.0 1010.0 0.0
21/06:30pm 24.4 23.2 21.5 84 1.9 NNE 30 48 16 26 1009.6 1009.6 0.0
21/06:00pm 24.5 22.7 21.6 84 1.9 NNE 33 54 18 29 1009.2 1009.2 0.0
21/05:30pm 24.8 23.0 21.5 82 2.2 N 33 54 18 29 1009.1 1009.1 0.0
21/05:00pm 26.1 23.8 22.0 78 2.7 N 37 56 20 30 1009.2 1009.2 0.0
21/04:47pm 26.1 23.9 21.5 76 3.1 N 35 54 19 29 1009.1 1009.1 0.0
21/04:30pm 26.5 23.5 21.3 73 3.4 NNE 39 54 21 29 1009.2 1009.2 0.0
21/04:00pm 26.8 23.9 21.5 72 3.5 N 39 54 21 29 1009.4 1009.4 0.0
21/03:30pm 27.7 25.9 22.2 72 3.7 N 35 54 19 29 1009.6 1009.6 0.0
21/03:00pm 28.1 26.7 21.9 69 4.2 N 32 52 17 28 1010.2 1010.2 0.0
21/02:30pm 28.2 26.1 21.7 68 4.4 N 35 56 19 30 1010.7 1010.7 0.0
21/02:01pm 28.3 26.7 21.6 67 4.5 NNE 32 50 17 27 1011.0 1011.0 0.0
21/02:00pm 28.9 28.3 22.6 69 4.3 NNE 30 44 16 24 1011.0 1011.0 0.0
21/01:30pm 28.3 26.8 21.8 68 4.4 N 32 44 17 24 1011.6 1011.6 0.0
21/01:10pm 28.2 26.5 21.7 68 4.4 NNE 33 52 18 28 1011.8 1011.8 0.0
21/01:00pm 28.3 27.0 22.5 71 3.9 N 33 46 18 25 1012.0 1012.0 0.0
21/12:30pm 28.0 26.9 21.8 69 4.2 N 30 43 16 23 1012.2 1012.2 0.0
21/12:00pm 27.9 26.2 21.4 67 4.3 NNE 32 44 17 24 1012.9 1012.9 0.0
21/11:30am 28.9 28.6 22.6 69 4.3 N 28 41 15 22 1013.3 1013.3 0.0
21/11:08am 27.7 26.0 21.3 68 4.3 N 32 50 17 27 1013.5 1013.5 0.0
21/11:00am 27.7 26.2 22.0 71 3.8 N 33 50 18 27 1013.6 1013.6 0.0
21/10:52am 27.7 26.5 21.5 69 4.1 N 30 50 16 27 1013.8 1013.8 0.0

Other Formats:

Comma delimited format used in spreadsheet applications
http://www.bom.gov.au/fwo/IDN60801/IDN60801.94596.axf

JavaScript Object Notation format (JSON) in row-major order
http://www.bom.gov.au/fwo/IDN60801/IDN60801.94596.json